LIBP/PSR METAR and TAF weather

Enter ICAO airport designator
Station Type Date Time Source
LIBP METAR 2023/02/05 23:20 UTC NOAA

LIBP 052320Z AUTO 03011KT 360V060 9999 BKN050/// 05/M05 Q1033


Station Type Date Time Source
LIBP Decoded METAR 2023/02/05 23:20 UTC NOAA

Pescara, Italy (LIBP) 42-26N 014-12E 11M
Feb 05, 2023 - 06:20 PM EST / 2023.02.05 2320 UTC
Wind: from the NNE (030 degrees) at 13 MPH (11 KT) (direction variable):0
Visibility: greater than 7 mile(s):0
Sky conditions: mostly cloudy
Temperature: 41 F (5 C)
Dew Point: 23 F (-5 C)
Relative Humidity: 48%
Pressure (altimeter): 30.50 in. Hg (1033 hPa)
ob: LIBP 052320Z AUTO 03011KT 360V060 9999 BKN050/// 05/M05 Q1033
cycle: 23

Station Type Date Time Source
LIBP TAF 2023/02/05 18:21 UTC NOAA

TAF LIBP 051700Z 0518/0618 36010KT 9999 SCT040

Example: see airport list